createdAt,value
2018-07-30T00:00:58.961Z,101054.86
2018-07-30T00:03:25.944Z,101048.77
2018-07-30T00:05:53.114Z,101051.12
2018-07-30T00:08:20.161Z,101047.00
2018-07-30T00:10:47.134Z,101049.68
2018-07-30T00:13:14.105Z,101046.07
2018-07-30T00:15:41.110Z,101043.29
2018-07-30T00:18:08.104Z,101044.84
2018-07-30T00:20:35.093Z,101046.47
2018-07-30T00:23:02.097Z,101043.19
2018-07-30T00:25:29.117Z,101043.91
2018-07-30T00:27:56.081Z,101041.92
2018-07-30T00:30:23.161Z,101038.53
2018-07-30T00:32:50.257Z,101031.23
2018-07-30T00:35:17.273Z,101037.09
2018-07-30T00:37:44.253Z,101044.48
2018-07-30T00:40:15.223Z,101035.03
2018-07-30T00:42:43.319Z,101042.21
2018-07-30T00:45:10.650Z,101043.77
2018-07-30T00:47:37.613Z,101038.64
2018-07-30T00:50:04.826Z,101036.15
2018-07-30T00:52:31.905Z,101035.64
2018-07-30T00:54:59.003Z,101033.19
2018-07-30T00:57:25.924Z,101035.03
2018-07-30T00:59:52.905Z,101034.09
2018-07-30T01:02:19.892Z,101033.26
2018-07-30T01:04:46.909Z,101032.14
2018-07-30T01:07:14.209Z,101035.81
2018-07-30T01:09:41.233Z,101038.59
2018-07-30T01:12:08.225Z,101043.94
2018-07-30T01:14:35.375Z,101041.33
2018-07-30T01:17:02.358Z,101048.94
2018-07-30T01:19:29.393Z,101035.48
2018-07-30T01:21:56.374Z,101039.55
2018-07-30T01:24:23.629Z,101039.15
2018-07-30T01:26:50.605Z,101042.20
2018-07-30T01:29:17.610Z,101045.86
2018-07-30T01:31:44.600Z,101039.07
2018-07-30T01:34:11.621Z,101044.83
2018-07-30T01:36:38.597Z,101047.89
2018-07-30T01:39:06.878Z,101052.28
2018-07-30T01:41:33.885Z,101049.33
2018-07-30T01:44:00.870Z,101055.67
2018-07-30T01:46:27.892Z,101056.39
2018-07-30T01:48:54.854Z,101058.73
2018-07-30T01:51:21.861Z,101055.44
2018-07-30T01:53:48.954Z,101048.98
2018-07-30T01:58:42.478Z,101053.16
2018-07-30T02:01:09.654Z,101038.97
2018-07-30T02:03:36.694Z,101048.31
2018-07-30T02:06:03.737Z,101051.98
2018-07-30T02:08:30.795Z,101055.36
2018-07-30T02:10:57.793Z,101050.98
2018-07-30T02:13:24.773Z,101054.65
2018-07-30T02:15:51.825Z,101053.02
2018-07-30T02:18:18.789Z,101051.69
2018-07-30T02:20:45.887Z,101054.03
2018-07-30T02:23:12.886Z,101060.20
2018-07-30T02:25:39.973Z,101059.69
2018-07-30T02:28:07.091Z,101061.03
2018-07-30T02:30:34.137Z,101056.19
2018-07-30T02:33:01.089Z,101055.36
2018-07-30T02:35:28.098Z,101055.36
2018-07-30T02:37:55.137Z,101061.41
2018-07-30T02:40:22.201Z,101061.51
2018-07-30T02:42:49.197Z,101060.23
2018-07-30T02:45:16.189Z,101061.66
2018-07-30T02:47:43.153Z,101054.36
2018-07-30T02:50:10.146Z,101053.20
2018-07-30T02:52:37.153Z,101058.66
2018-07-30T02:55:04.172Z,101056.09
2018-07-30T02:57:31.222Z,101056.14
2018-07-30T02:59:58.176Z,101063.84
2018-07-30T03:02:25.168Z,101067.52
2018-07-30T03:04:52.158Z,101063.61
2018-07-30T03:07:19.434Z,101066.66
2018-07-30T03:09:46.397Z,101065.20
2018-07-30T03:12:13.398Z,101062.41
2018-07-30T03:14:40.393Z,101057.47
2018-07-30T03:17:07.930Z,101064.66
2018-07-30T03:19:34.915Z,101064.55
2018-07-30T03:22:01.944Z,101063.56
2018-07-30T03:24:28.937Z,101060.56
2018-07-30T03:26:55.929Z,101063.94
2018-07-30T03:29:22.920Z,101060.56
2018-07-30T03:31:49.921Z,101060.06
2018-07-30T03:34:16.954Z,101054.73
2018-07-30T03:36:43.972Z,101059.21
2018-07-30T03:39:10.965Z,101053.80
2018-07-30T03:41:38.077Z,101057.58
2018-07-30T03:44:05.293Z,101063.45
2018-07-30T03:46:32.351Z,101062.36
2018-07-30T03:48:59.418Z,101061.15
2018-07-30T03:51:26.421Z,101060.31
2018-07-30T03:53:53.473Z,101057.77
2018-07-30T03:56:20.792Z,101068.23
2018-07-30T03:58:47.761Z,101068.05
2018-07-30T04:01:14.778Z,101061.69
2018-07-30T04:03:41.749Z,101056.47
2018-07-30T04:06:08.823Z,101051.05
2018-07-30T04:08:35.977Z,101053.33
2018-07-30T04:11:03.012Z,101056.11
2018-07-30T04:13:29.989Z,101053.89
2018-07-30T04:15:57.001Z,101044.61
2018-07-30T04:18:24.009Z,101056.19
2018-07-30T04:20:51.005Z,101062.77
2018-07-30T04:23:18.005Z,101076.17
2018-07-30T04:25:44.994Z,101072.08
2018-07-30T04:28:12.002Z,101071.18
2018-07-30T04:30:39.008Z,101074.97
2018-07-30T04:33:06.117Z,101071.41
2018-07-30T04:35:33.085Z,101074.59
2018-07-30T04:38:00.066Z,101079.83
2018-07-30T04:40:27.049Z,101080.77
2018-07-30T04:42:54.062Z,101071.90
2018-07-30T04:45:21.045Z,101078.98
2018-07-30T04:47:48.185Z,101083.03
2018-07-30T04:50:15.188Z,101086.05
2018-07-30T04:52:42.189Z,101088.61
2018-07-30T04:55:09.214Z,101089.84
2018-07-30T04:57:36.204Z,101094.29
2018-07-30T05:00:03.749Z,101095.34
2018-07-30T05:02:30.741Z,101097.20
2018-07-30T05:04:57.714Z,101110.48
2018-07-30T05:07:24.753Z,101107.82
2018-07-30T05:09:51.992Z,101109.70
2018-07-30T05:12:19.004Z,101113.71
2018-07-30T05:14:45.989Z,101110.16
2018-07-30T05:17:12.965Z,101106.77
2018-07-30T05:19:39.972Z,101107.17
2018-07-30T05:22:07.041Z,101107.56
2018-07-30T05:24:34.041Z,101109.05
2018-07-30T05:27:01.066Z,101104.70
2018-07-30T05:29:28.092Z,101101.74
2018-07-30T05:31:55.080Z,101110.70
2018-07-30T05:34:22.045Z,101104.03
2018-07-30T05:36:49.070Z,101113.89
2018-07-30T05:39:16.037Z,101111.65
2018-07-30T05:41:43.033Z,101117.20
2018-07-30T05:44:10.058Z,101124.49
2018-07-30T05:46:37.049Z,101123.56
2018-07-30T05:49:04.290Z,101121.01
2018-07-30T05:51:31.289Z,101127.69
2018-07-30T05:53:58.289Z,101138.28
2018-07-30T05:56:25.281Z,101129.11
2018-07-30T05:58:52.274Z,101137.47
2018-07-30T06:01:19.248Z,101135.39
2018-07-30T06:03:46.297Z,101144.74
2018-07-30T06:06:13.269Z,101145.45
2018-07-30T06:08:40.278Z,101147.08
2018-07-30T06:11:07.270Z,101144.41
2018-07-30T06:13:34.257Z,101142.20
2018-07-30T06:16:01.242Z,101156.11
2018-07-30T06:18:28.245Z,101155.59
2018-07-30T06:20:55.415Z,101161.14
2018-07-30T06:23:22.406Z,101152.09
2018-07-30T06:25:49.430Z,101153.20
2018-07-30T06:28:16.467Z,101159.39
2018-07-30T06:30:43.561Z,101164.75
2018-07-30T06:33:10.569Z,101160.63
2018-07-30T06:35:37.583Z,101158.59
2018-07-30T06:38:04.585Z,101158.59
2018-07-30T06:40:31.556Z,101153.52
2018-07-30T06:42:58.549Z,101162.10
2018-07-30T06:45:25.493Z,101160.02
2018-07-30T06:47:52.485Z,101174.31
2018-07-30T06:50:19.472Z,101176.95
2018-07-30T06:52:46.577Z,101184.53
2018-07-30T06:55:13.550Z,101189.88
2018-07-30T06:57:40.549Z,101197.19
2018-07-30T07:00:09.046Z,101193.00
2018-07-30T07:02:36.114Z,101194.19
2018-07-30T07:05:03.177Z,101201.55
2018-07-30T07:07:30.181Z,101201.59
2018-07-30T07:09:57.130Z,101203.73
2018-07-30T07:12:24.109Z,101203.57
2018-07-30T07:14:51.096Z,101207.45
2018-07-30T07:17:18.094Z,101209.10
2018-07-30T07:19:45.101Z,101213.88
2018-07-30T07:22:12.397Z,101219.91
2018-07-30T07:24:39.374Z,101215.95
2018-07-30T07:27:06.538Z,101219.84
2018-07-30T07:29:33.402Z,101227.08
2018-07-30T07:32:00.381Z,101229.73
2018-07-30T07:34:27.341Z,101229.48
2018-07-30T07:36:54.353Z,101225.69
2018-07-30T07:39:21.329Z,101230.89
2018-07-30T07:41:48.365Z,101229.78
2018-07-30T07:44:15.349Z,101229.39
2018-07-30T07:46:42.355Z,101232.73
2018-07-30T07:49:09.333Z,101238.70
2018-07-30T07:51:36.346Z,101235.59
2018-07-30T07:54:03.341Z,101240.61
2018-07-30T07:56:30.377Z,101235.77
2018-07-30T07:58:57.357Z,101241.19
2018-07-30T08:01:24.345Z,101242.75
2018-07-30T08:03:51.450Z,101247.52
2018-07-30T08:06:18.491Z,101243.51
2018-07-30T08:08:45.437Z,101246.42
2018-07-30T08:11:12.434Z,101247.95
2018-07-30T08:13:39.418Z,101245.06
2018-07-30T08:16:06.404Z,101249.84
2018-07-30T08:18:33.406Z,101245.89
2018-07-30T08:21:00.377Z,101249.78
2018-07-30T08:23:27.389Z,101251.56
2018-07-30T08:25:54.395Z,101256.20
2018-07-30T08:28:21.393Z,101254.83
2018-07-30T08:30:48.413Z,101261.84
2018-07-30T08:33:15.429Z,101259.95
2018-07-30T08:35:42.413Z,101260.09
2018-07-30T08:38:09.430Z,101256.71
2018-07-30T08:40:36.413Z,101260.06
2018-07-30T08:43:03.369Z,101264.96
2018-07-30T08:45:30.401Z,101261.65
2018-07-30T08:47:57.489Z,101266.16
2018-07-30T08:50:24.490Z,101262.33
2018-07-30T08:52:51.485Z,101259.70
2018-07-30T08:55:18.442Z,101261.30
2018-07-30T08:57:45.480Z,101261.09
2018-07-30T09:00:12.481Z,101264.56
2018-07-30T09:02:39.473Z,101266.45
2018-07-30T09:05:06.737Z,101268.89
2018-07-30T09:07:33.754Z,101270.89
2018-07-30T09:10:00.718Z,101265.49
2018-07-30T09:12:27.772Z,101268.05
2018-07-30T09:14:54.731Z,101268.52
2018-07-30T09:17:21.693Z,101270.86
2018-07-30T09:19:48.681Z,101273.61
2018-07-30T09:22:15.661Z,101275.41
2018-07-30T09:24:42.645Z,101276.82
2018-07-30T09:27:09.664Z,101275.88
2018-07-30T09:29:36.932Z,101284.02
2018-07-30T09:32:04.291Z,101287.52
2018-07-30T09:34:31.401Z,101287.72
2018-07-30T09:36:58.377Z,101286.72
2018-07-30T09:39:25.415Z,101291.24
2018-07-30T09:41:52.393Z,101294.23
2018-07-30T09:44:19.486Z,101291.17
2018-07-30T09:46:46.518Z,101295.63
2018-07-30T09:49:13.509Z,101291.36
2018-07-30T09:51:40.477Z,101294.51
2018-07-30T09:54:07.514Z,101296.42
2018-07-30T09:56:34.453Z,101291.81
2018-07-30T09:59:01.467Z,101288.36
2018-07-30T10:01:29.549Z,101294.98
2018-07-30T10:03:57.532Z,101292.09
2018-07-30T10:06:24.670Z,101299.70
2018-07-30T10:08:51.776Z,101299.55
2018-07-30T10:11:18.940Z,101303.82
2018-07-30T10:13:45.925Z,101301.59
2018-07-30T10:16:12.945Z,101295.84
2018-07-30T10:18:39.925Z,101301.94
2018-07-30T10:21:07.069Z,101298.36
2018-07-30T10:23:34.064Z,101300.16
2018-07-30T10:26:01.065Z,101296.48
2018-07-30T10:28:28.092Z,101298.40
2018-07-30T10:30:55.085Z,101296.56
2018-07-30T10:33:22.073Z,101296.56
2018-07-30T10:35:49.066Z,101297.63
2018-07-30T10:38:16.405Z,101289.66
2018-07-30T10:40:43.446Z,101289.81
2018-07-30T10:43:10.437Z,101292.93
2018-07-30T10:45:37.518Z,101290.67
2018-07-30T10:48:04.537Z,101295.79
2018-07-30T10:50:31.557Z,101287.26
2018-07-30T10:52:58.534Z,101292.71
2018-07-30T10:55:25.528Z,101288.31
2018-07-30T10:57:52.537Z,101287.37
2018-07-30T11:00:19.525Z,101289.92
2018-07-30T11:02:46.510Z,101287.77
2018-07-30T11:05:13.508Z,101285.30
2018-07-30T11:07:40.570Z,101283.94
2018-07-30T11:10:07.593Z,101281.80
2018-07-30T11:12:34.582Z,101284.91
2018-07-30T11:15:01.935Z,101284.45
2018-07-30T11:17:28.920Z,101278.14
2018-07-30T11:19:55.905Z,101276.20
2018-07-30T11:22:22.945Z,101272.79
2018-07-30T11:24:49.962Z,101275.71
2018-07-30T11:27:17.043Z,101281.48
2018-07-30T11:29:44.060Z,101283.27
2018-07-30T11:32:11.042Z,101281.75
2018-07-30T11:34:38.085Z,101279.81
2018-07-30T11:37:05.073Z,101271.19
2018-07-30T11:39:32.066Z,101281.27
2018-07-30T11:41:59.453Z,101279.59
2018-07-30T11:44:26.471Z,101271.95
2018-07-30T11:46:53.465Z,101275.94
2018-07-30T11:49:20.560Z,101275.67
2018-07-30T11:51:47.569Z,101276.78
2018-07-30T11:54:14.564Z,101277.05
2018-07-30T11:56:41.591Z,101277.32
2018-07-30T11:59:08.705Z,101270.52
2018-07-30T12:01:35.668Z,101271.55
2018-07-30T12:04:02.684Z,101272.30
2018-07-30T12:06:29.945Z,101270.30
2018-07-30T12:08:57.318Z,101272.82
2018-07-30T12:11:24.293Z,101270.08
2018-07-30T12:13:51.272Z,101274.25
2018-07-30T12:16:18.269Z,101271.14
2018-07-30T12:18:45.249Z,101267.09
2018-07-30T12:21:12.277Z,101268.41
2018-07-30T12:23:39.280Z,101263.63
2018-07-30T12:26:06.298Z,101262.43
2018-07-30T12:28:33.267Z,101255.05
2018-07-30T12:31:00.287Z,101253.89
2018-07-30T12:33:27.258Z,101257.16
2018-07-30T12:35:54.448Z,101257.40
2018-07-30T12:38:21.416Z,101250.63
2018-07-30T12:40:48.425Z,101246.44
2018-07-30T12:43:15.469Z,101241.65
2018-07-30T12:45:44.244Z,101243.97
2018-07-30T12:48:11.464Z,101236.13
2018-07-30T12:50:38.528Z,101244.09
2018-07-30T12:53:05.528Z,101244.48
2018-07-30T12:55:32.813Z,101234.27
2018-07-30T12:57:59.795Z,101228.92
2018-07-30T13:00:27.133Z,101230.14
2018-07-30T13:02:54.145Z,101248.45
2018-07-30T13:05:21.121Z,101241.96
2018-07-30T13:07:48.089Z,101234.34
2018-07-30T13:10:15.093Z,101233.86
2018-07-30T13:12:42.119Z,101230.88
2018-07-30T13:15:09.513Z,101225.44
2018-07-30T13:17:36.538Z,101222.44
2018-07-30T13:20:04.085Z,101229.98
2018-07-30T13:22:31.093Z,101218.55
2018-07-30T13:24:58.073Z,101223.70
2018-07-30T13:27:25.074Z,101216.30
2018-07-30T13:29:52.060Z,101217.32
2018-07-30T13:32:19.068Z,101215.61
2018-07-30T13:34:46.105Z,101213.78
2018-07-30T13:37:13.109Z,101209.77
2018-07-30T13:39:40.077Z,101212.14
2018-07-30T13:42:07.153Z,101210.51
2018-07-30T13:44:34.170Z,101199.91
2018-07-30T13:47:01.181Z,101205.16
2018-07-30T13:49:28.165Z,101198.91
2018-07-30T13:51:55.165Z,101199.91
2018-07-30T13:54:22.215Z,101194.69
2018-07-30T13:56:49.202Z,101190.29
2018-07-30T13:59:16.260Z,101189.16
2018-07-30T14:01:43.261Z,101182.13
2018-07-30T14:04:10.233Z,101188.11
2018-07-30T14:06:37.338Z,101185.97
2018-07-30T14:09:07.425Z,101186.03
2018-07-30T14:11:34.625Z,101183.63
2018-07-30T14:14:01.605Z,101184.71
2018-07-30T14:16:28.587Z,101183.33
2018-07-30T14:18:55.552Z,101186.59
2018-07-30T14:21:22.653Z,101180.14
2018-07-30T14:23:49.657Z,101179.66
2018-07-30T14:26:16.809Z,101172.87
2018-07-30T14:28:43.804Z,101175.63
2018-07-30T14:31:10.837Z,101170.53
2018-07-30T14:33:37.806Z,101161.58
2018-07-30T14:36:04.841Z,101169.68
2018-07-30T14:38:31.821Z,101165.23
2018-07-30T14:40:58.852Z,101172.50
2018-07-30T14:43:25.868Z,101166.28
2018-07-30T14:45:52.908Z,101169.55
2018-07-30T14:48:20.105Z,101163.02
2018-07-30T14:50:47.093Z,101165.33
2018-07-30T14:53:14.113Z,101160.78
2018-07-30T14:55:41.118Z,101159.20
2018-07-30T14:58:08.117Z,101162.20
2018-07-30T15:00:35.099Z,101162.20
2018-07-30T15:03:02.085Z,101159.50
2018-07-30T15:05:29.081Z,101156.48
2018-07-30T15:07:56.069Z,101160.80
2018-07-30T15:10:23.056Z,101156.97
2018-07-30T15:12:50.366Z,101151.50
2018-07-30T15:15:17.328Z,101146.84
2018-07-30T15:17:44.428Z,101149.81
2018-07-30T15:20:11.478Z,101148.77
2018-07-30T15:22:38.509Z,101147.16
2018-07-30T15:25:05.873Z,101148.56
2018-07-30T15:27:32.969Z,101146.40
2018-07-30T15:30:00.080Z,101149.94
2018-07-30T15:32:27.673Z,101143.11
2018-07-30T15:34:54.786Z,101143.88
2018-07-30T15:37:21.778Z,101147.09
2018-07-30T15:39:49.281Z,101146.01
2018-07-30T15:42:16.345Z,101148.19
2018-07-30T15:44:43.328Z,101144.39
2018-07-30T15:47:10.516Z,101145.53
2018-07-30T15:49:37.493Z,101143.34
2018-07-30T15:52:04.548Z,101144.97
2018-07-30T15:54:31.541Z,101142.58
2018-07-30T15:56:58.561Z,101143.16
2018-07-30T15:59:25.537Z,101136.14
2018-07-30T16:01:52.559Z,101138.59
2018-07-30T16:04:19.548Z,101138.30
2018-07-30T16:06:46.676Z,101133.95
2018-07-30T16:09:13.656Z,101128.77
2018-07-30T16:11:40.663Z,101124.69
2018-07-30T16:14:07.660Z,101121.11
2018-07-30T16:16:34.662Z,101117.00
2018-07-30T16:19:01.787Z,101125.09
2018-07-30T16:21:28.873Z,101124.73
2018-07-30T16:23:55.922Z,101118.45
2018-07-30T16:26:22.906Z,101118.71
2018-07-30T16:28:49.905Z,101114.61
2018-07-30T16:31:16.902Z,101112.69
2018-07-30T16:33:43.913Z,101114.00
2018-07-30T16:36:10.945Z,101112.29
2018-07-30T16:38:37.933Z,101118.97
2018-07-30T16:41:05.063Z,101116.53
2018-07-30T16:43:32.237Z,101115.18
2018-07-30T16:45:59.229Z,101117.86
2018-07-30T16:48:26.444Z,101115.71
2018-07-30T16:50:54.269Z,101119.80
2018-07-30T16:53:21.321Z,101121.68
2018-07-30T16:55:48.904Z,101116.53
2018-07-30T16:58:16.185Z,101116.53
2018-07-30T17:00:43.174Z,101112.75
2018-07-30T17:03:10.220Z,101117.11
2018-07-30T17:05:37.216Z,101112.73
2018-07-30T17:08:04.792Z,101112.95
2018-07-30T17:10:31.777Z,101117.73
2018-07-30T17:12:58.780Z,101117.98
2018-07-30T17:15:25.780Z,101120.34
2018-07-30T17:17:52.775Z,101117.83
2018-07-30T17:20:19.769Z,101115.08
2018-07-30T17:22:46.777Z,101117.73
2018-07-30T17:25:13.799Z,101116.31
2018-07-30T17:27:40.798Z,101116.27
2018-07-30T17:30:08.956Z,101112.14
2018-07-30T17:32:35.929Z,101115.02
2018-07-30T17:35:03.021Z,101116.59
2018-07-30T17:37:30.022Z,101115.44
2018-07-30T17:39:57.023Z,101122.66
2018-07-30T17:42:24.049Z,101124.48
2018-07-30T17:44:51.280Z,101123.12
2018-07-30T17:47:18.370Z,101122.63
2018-07-30T17:49:45.385Z,101122.20
2018-07-30T17:52:12.361Z,101128.43
2018-07-30T17:54:39.377Z,101126.31
2018-07-30T17:57:06.369Z,101132.31
2018-07-30T17:59:33.605Z,101129.84
2018-07-30T18:02:00.751Z,101129.08
2018-07-30T18:04:27.745Z,101132.44
2018-07-30T18:06:54.725Z,101133.61
2018-07-30T18:09:21.879Z,101131.23
2018-07-30T18:11:48.869Z,101132.23
2018-07-30T18:14:16.001Z,101138.41
2018-07-30T18:16:43.003Z,101140.16
2018-07-30T18:19:10.089Z,101138.16
2018-07-30T18:21:37.085Z,101141.03
2018-07-30T18:24:04.184Z,101143.38
2018-07-30T18:26:31.176Z,101147.07
2018-07-30T18:28:58.193Z,101139.19
2018-07-30T18:31:25.208Z,101137.23
2018-07-30T18:33:52.210Z,101136.64
2018-07-30T18:36:19.191Z,101147.09
2018-07-30T18:38:46.205Z,101143.45
2018-07-30T18:41:13.605Z,101146.38
2018-07-30T18:43:40.790Z,101146.02
2018-07-30T18:46:07.805Z,101146.69
2018-07-30T18:48:34.802Z,101149.00
2018-07-30T18:51:01.821Z,101149.67
2018-07-30T18:53:28.801Z,101147.06
2018-07-30T18:55:55.829Z,101144.69
2018-07-30T18:58:22.841Z,101149.66
2018-07-30T19:00:49.897Z,101146.00
2018-07-30T19:03:17.024Z,101157.19
2018-07-30T19:05:44.029Z,101158.95
2018-07-30T19:08:11.026Z,101162.03
2018-07-30T19:10:38.052Z,101165.11
2018-07-30T19:13:05.025Z,101165.45
2018-07-30T19:15:32.041Z,101171.52
2018-07-30T19:17:59.109Z,101175.94
2018-07-30T19:20:26.155Z,101176.34
2018-07-30T19:22:53.228Z,101173.48
2018-07-30T19:25:20.261Z,101181.98
2018-07-30T19:27:47.237Z,101174.06
2018-07-30T19:30:14.253Z,101175.30
2018-07-30T19:32:41.312Z,101177.31
2018-07-30T19:35:08.485Z,101180.77
2018-07-30T19:37:35.714Z,101177.72
2018-07-30T19:40:03.046Z,101177.36
2018-07-30T19:42:30.241Z,101185.91
2018-07-30T19:44:57.472Z,101178.17
2018-07-30T19:47:24.570Z,101182.52
2018-07-30T19:49:51.561Z,101189.19
2018-07-30T19:52:18.605Z,101190.79
2018-07-30T19:54:45.781Z,101186.63
2018-07-30T19:57:12.920Z,101194.41
2018-07-30T19:59:39.909Z,101190.55
2018-07-30T20:02:06.985Z,101191.78
2018-07-30T20:04:34.024Z,101189.55
2018-07-30T20:07:01.100Z,101192.95
2018-07-30T20:09:28.027Z,101195.00
2018-07-30T20:11:55.057Z,101190.83
2018-07-30T20:14:22.033Z,101193.16
2018-07-30T20:16:49.065Z,101193.30
2018-07-30T20:19:16.081Z,101191.59
2018-07-30T20:21:43.103Z,101188.53
2018-07-30T20:24:10.085Z,101196.78
2018-07-30T20:26:37.134Z,101190.75
2018-07-30T20:29:04.261Z,101189.27
2018-07-30T20:31:31.332Z,101188.38
2018-07-30T20:33:58.745Z,101190.42
2018-07-30T20:36:25.761Z,101191.40
2018-07-30T20:38:53.297Z,101189.70
2018-07-30T20:41:20.589Z,101198.75
2018-07-30T20:43:47.834Z,101189.33
2018-07-30T20:46:14.831Z,101196.65
2018-07-30T20:48:41.956Z,101184.41
2018-07-30T20:51:08.981Z,101207.13
2018-07-30T20:53:36.161Z,101204.13
2018-07-30T20:56:03.286Z,101207.72
2018-07-30T20:58:30.309Z,101193.09
2018-07-30T21:00:57.337Z,101208.76
2018-07-30T21:03:24.317Z,101201.17
2018-07-30T21:05:51.353Z,101205.13
2018-07-30T21:08:18.366Z,101211.94
2018-07-30T21:10:45.917Z,101214.48
2018-07-30T21:13:14.359Z,101207.93
2018-07-30T21:15:41.517Z,101206.70
2018-07-30T21:18:08.569Z,101213.90
2018-07-30T21:20:35.565Z,101210.00
2018-07-30T21:23:02.977Z,101199.50
2018-07-30T21:25:30.200Z,101202.40
2018-07-30T21:27:57.412Z,101201.43
2018-07-30T21:30:24.583Z,101205.87
2018-07-30T21:32:51.574Z,101213.23
2018-07-30T21:35:18.573Z,101208.02
2018-07-30T21:37:45.577Z,101208.47
2018-07-30T21:40:12.553Z,101205.94
2018-07-30T21:42:39.571Z,101208.24
2018-07-30T21:45:06.584Z,101202.20
2018-07-30T21:47:33.614Z,101208.77
2018-07-30T21:50:00.614Z,101208.06
2018-07-30T21:52:27.689Z,101208.50
2018-07-30T21:54:54.701Z,101209.69
2018-07-30T21:57:21.793Z,101207.91
2018-07-30T21:59:49.548Z,101211.63
2018-07-30T22:02:16.593Z,101214.47
2018-07-30T22:04:43.563Z,101214.00
2018-07-30T22:07:10.618Z,101215.27
2018-07-30T22:09:37.598Z,101219.45
2018-07-30T22:12:04.664Z,101221.73
2018-07-30T22:14:31.658Z,101223.23
2018-07-30T22:16:58.673Z,101217.39
2018-07-30T22:19:25.695Z,101212.08
2018-07-30T22:21:53.053Z,101221.68
2018-07-30T22:24:20.085Z,101232.56
2018-07-30T22:26:47.186Z,101228.86
2018-07-30T22:29:14.193Z,101231.77
2018-07-30T22:31:41.337Z,101231.38
2018-07-30T22:34:08.353Z,101226.44
2018-07-30T22:36:35.341Z,101227.09
2018-07-30T22:39:02.369Z,101215.90
2018-07-30T22:41:29.437Z,101216.16
2018-07-30T22:43:56.433Z,101222.03
2018-07-30T22:46:23.436Z,101225.69
2018-07-30T22:48:50.481Z,101212.61
2018-07-30T22:51:17.465Z,101218.41
2018-07-30T22:53:44.480Z,101216.57
2018-07-30T22:56:11.456Z,101224.75
2018-07-30T22:58:38.453Z,101220.88
2018-07-30T23:01:05.544Z,101223.47
2018-07-30T23:03:32.553Z,101218.80
2018-07-30T23:05:59.548Z,101215.23
2018-07-30T23:08:26.537Z,101216.77
2018-07-30T23:10:53.529Z,101218.02
2018-07-30T23:13:20.560Z,101216.05
2018-07-30T23:15:47.549Z,101213.50
2018-07-30T23:18:14.573Z,101210.41
2018-07-30T23:20:41.640Z,101208.70
2018-07-30T23:23:08.661Z,101212.91
2018-07-30T23:25:35.665Z,101214.48
2018-07-30T23:28:02.739Z,101213.55
2018-07-30T23:30:29.725Z,101211.61
2018-07-30T23:32:56.726Z,101207.50
2018-07-30T23:35:23.698Z,101205.55
2018-07-30T23:37:50.706Z,101200.39
2018-07-30T23:40:17.681Z,101204.83
2018-07-30T23:42:44.713Z,101205.27
2018-07-30T23:45:11.686Z,101204.86
2018-07-30T23:47:38.664Z,101207.13
2018-07-30T23:50:05.685Z,101209.94
2018-07-30T23:52:32.730Z,101203.47
2018-07-30T23:54:59.782Z,101205.83
2018-07-30T23:57:26.729Z,101205.95
2018-07-30T23:59:54.306Z,101207.20
